PAL3858 RPVE-RPLL
Flight info
| Callsign | PAL3858 |
|---|---|
| Flight time | 0h 44m |
| Altitude | 26000 |
| Route | MINOR8A MINOR B473 LAIYA LAIYA7R |
| Aircraft | B738/M-SDE2E3FGHIRWXY/LB1 |
Departure
| Time | 2026-04-22 15:46 |
|---|---|
| Airport | Godofredo P. Ramos Airport (RPVE) |
Arrival
| Time | 2026-04-22 16:30 |
|---|---|
| Airport | Ninoy Aquino International Airport (RPLL) |
| Time | Latitude | Longitude | Altitude | Speed | Heading |
|---|---|---|---|---|---|
| 2026-04-22 15:31 | 11.92453 | 121.96337 | 12 ft | 0 kts | 65° |
| 2026-04-22 15:36 | 11.92451 | 121.96332 | 12 ft | 2 kts | 65° |
| 2026-04-22 15:36 | 11.92446 | 121.96322 | 12 ft | 1 kts | 65° |
| 2026-04-22 15:37 | 11.92438 | 121.96309 | 12 ft | 2 kts | 45° |
| 2026-04-22 15:37 | 11.92426 | 121.96299 | 12 ft | 1 kts | 28° |
| 2026-04-22 15:37 | 11.92420 | 121.96296 | 12 ft | 1 kts | 22° |
| 2026-04-22 15:37 | 11.92418 | 121.96295 | 12 ft | 0 kts | 24° |
| 2026-04-22 15:39 | 11.92426 | 121.96298 | 12 ft | 3 kts | 15° |
| 2026-04-22 15:40 | 11.92458 | 121.96287 | 12 ft | 7 kts | 320° |
| 2026-04-22 15:40 | 11.92512 | 121.96246 | 12 ft | 10 kts | 329° |
| 2026-04-22 15:40 | 11.92583 | 121.96219 | 12 ft | 10 kts | 354° |
| 2026-04-22 15:40 | 11.92589 | 121.96218 | 12 ft | 0 kts | 354° |
| 2026-04-22 15:42 | 11.92624 | 121.96210 | 12 ft | 9 kts | 341° |
| 2026-04-22 15:42 | 11.92721 | 121.96162 | 12 ft | 20 kts | 332° |
| 2026-04-22 15:42 | 11.92767 | 121.96058 | 12 ft | 17 kts | 230° |
| 2026-04-22 15:43 | 11.92722 | 121.95935 | 12 ft | 19 kts | 244° |
| 2026-04-22 15:43 | 11.92653 | 121.95798 | 12 ft | 23 kts | 243° |
| 2026-04-22 15:43 | 11.92570 | 121.95634 | 12 ft | 26 kts | 243° |
| 2026-04-22 15:43 | 11.92476 | 121.95448 | 12 ft | 30 kts | 243° |
| 2026-04-22 15:44 | 11.92376 | 121.95245 | 12 ft | 26 kts | 247° |
| 2026-04-22 15:44 | 11.92317 | 121.95091 | 12 ft | 18 kts | 249° |
| 2026-04-22 15:44 | 11.92277 | 121.95010 | 12 ft | 7 kts | 214° |
| 2026-04-22 15:44 | 11.92269 | 121.95032 | 12 ft | 3 kts | 68° |
| 2026-04-22 15:45 | 11.92281 | 121.95053 | 12 ft | 0 kts | 65° |
| 2026-04-22 15:45 | 11.92335 | 121.95164 | 12 ft | 45 kts | 63° |
| 2026-04-22 15:46 | 11.92634 | 121.95764 | 12 ft | 133 kts | 63° |
| 2026-04-22 15:46 | 11.93105 | 121.96712 | 711 ft | 144 kts | 65° |
| 2026-04-22 15:46 | 11.93489 | 121.97489 | 1797 ft | 123 kts | 65° |
| 2026-04-22 15:46 | 11.93934 | 121.98353 | 2218 ft | 144 kts | 64° |
| 2026-04-22 15:47 | 11.94429 | 121.99322 | 2837 ft | 157 kts | 64° |
| 2026-04-22 15:47 | 11.94940 | 122.00343 | 3488 ft | 167 kts | 64° |
| 2026-04-22 15:47 | 11.95503 | 122.01466 | 4124 ft | 182 kts | 64° |
| 2026-04-22 15:47 | 11.96176 | 122.02686 | 4738 ft | 201 kts | 54° |
| 2026-04-22 15:48 | 11.97332 | 122.03643 | 5407 ft | 220 kts | 28° |
| 2026-04-22 15:48 | 11.98832 | 122.04299 | 6069 ft | 237 kts | 24° |
| 2026-04-22 15:48 | 12.00466 | 122.05024 | 6760 ft | 253 kts | 26° |
| 2026-04-22 15:48 | 12.02132 | 122.05837 | 7417 ft | 269 kts | 27° |
| 2026-04-22 15:49 | 12.03924 | 122.06747 | 8088 ft | 284 kts | 27° |
| 2026-04-22 15:49 | 12.05784 | 122.07696 | 8730 ft | 300 kts | 27° |
| 2026-04-22 15:49 | 12.07757 | 122.08700 | 9365 ft | 316 kts | 26° |
| 2026-04-22 15:49 | 12.09819 | 122.09744 | 10034 ft | 329 kts | 26° |
| 2026-04-22 15:50 | 12.11971 | 122.10833 | 10896 ft | 335 kts | 26° |
| 2026-04-22 15:50 | 12.14139 | 122.11929 | 11538 ft | 347 kts | 26° |
| 2026-04-22 15:50 | 12.16412 | 122.13078 | 12251 ft | 356 kts | 26° |
| 2026-04-22 15:50 | 12.18719 | 122.14246 | 13037 ft | 362 kts | 26° |
| 2026-04-22 15:51 | 12.21028 | 122.15415 | 13790 ft | 367 kts | 26° |
| 2026-04-22 15:51 | 12.23426 | 122.16629 | 14584 ft | 371 kts | 26° |
| 2026-04-22 15:51 | 12.25789 | 122.17825 | 15320 ft | 375 kts | 27° |
| 2026-04-22 15:51 | 12.28222 | 122.19058 | 16043 ft | 379 kts | 27° |
| 2026-04-22 15:52 | 12.30628 | 122.20278 | 16726 ft | 383 kts | 27° |
| 2026-04-22 15:52 | 12.33130 | 122.21475 | 17405 ft | 387 kts | 23° |
| 2026-04-22 15:52 | 12.35842 | 122.22234 | 18054 ft | 393 kts | 6° |
| 2026-04-22 15:52 | 12.38627 | 122.21991 | 18729 ft | 396 kts | 344° |
| 2026-04-22 15:53 | 12.41224 | 122.20754 | 19364 ft | 399 kts | 328° |
| 2026-04-22 15:53 | 12.43614 | 122.19133 | 19998 ft | 402 kts | 325° |
| 2026-04-22 15:53 | 12.45957 | 122.17438 | 20669 ft | 404 kts | 324° |
| 2026-04-22 15:53 | 12.48327 | 122.15703 | 21326 ft | 405 kts | 324° |
| 2026-04-22 15:54 | 12.50695 | 122.13983 | 21899 ft | 409 kts | 325° |
| 2026-04-22 15:54 | 12.53080 | 122.12273 | 22510 ft | 411 kts | 325° |
| 2026-04-22 15:54 | 12.55503 | 122.10555 | 23042 ft | 416 kts | 325° |
| 2026-04-22 15:54 | 12.57975 | 122.08817 | 23598 ft | 419 kts | 325° |
| 2026-04-22 15:55 | 12.60454 | 122.07083 | 24110 ft | 424 kts | 325° |
| 2026-04-22 15:55 | 12.62968 | 122.05331 | 24670 ft | 427 kts | 325° |
| 2026-04-22 15:55 | 12.65496 | 122.03571 | 25166 ft | 431 kts | 325° |
| 2026-04-22 15:55 | 12.68041 | 122.01801 | 25768 ft | 432 kts | 325° |
| 2026-04-22 15:56 | 12.70578 | 122.00037 | 25883 ft | 434 kts | 325° |
| 2026-04-22 15:56 | 12.73119 | 121.98270 | 25886 ft | 428 kts | 325° |
| 2026-04-22 15:56 | 12.75662 | 121.96500 | 25893 ft | 425 kts | 325° |
| 2026-04-22 15:56 | 12.78166 | 121.94757 | 25891 ft | 426 kts | 325° |
| 2026-04-22 15:57 | 12.80676 | 121.93009 | 25886 ft | 426 kts | 325° |
| 2026-04-22 15:57 | 12.83205 | 121.91247 | 25884 ft | 426 kts | 325° |
| 2026-04-22 15:57 | 12.85698 | 121.89510 | 25889 ft | 427 kts | 325° |
| 2026-04-22 15:57 | 12.88214 | 121.87755 | 25892 ft | 428 kts | 325° |
| 2026-04-22 15:58 | 12.90768 | 121.85974 | 25890 ft | 428 kts | 325° |
| 2026-04-22 15:58 | 12.93278 | 121.84224 | 25889 ft | 427 kts | 325° |
| 2026-04-22 15:58 | 12.95815 | 121.82454 | 25892 ft | 428 kts | 325° |
| 2026-04-22 15:58 | 12.98364 | 121.80675 | 25894 ft | 429 kts | 325° |
| 2026-04-22 15:59 | 13.00920 | 121.78890 | 25900 ft | 429 kts | 325° |
| 2026-04-22 15:59 | 13.03454 | 121.77121 | 25899 ft | 428 kts | 325° |
| 2026-04-22 15:59 | 13.05983 | 121.75356 | 25902 ft | 427 kts | 325° |
| 2026-04-22 15:59 | 13.08508 | 121.73592 | 25881 ft | 424 kts | 325° |
| 2026-04-22 16:00 | 13.10148 | 121.72446 | 25683 ft | 416 kts | 325° |
| 2026-04-22 16:00 | 13.13419 | 121.70160 | 24726 ft | 412 kts | 325° |
| 2026-04-22 16:00 | 13.15846 | 121.68462 | 24059 ft | 411 kts | 325° |
| 2026-04-22 16:00 | 13.18236 | 121.66790 | 23556 ft | 406 kts | 325° |
| 2026-04-22 16:01 | 13.20636 | 121.65111 | 23004 ft | 403 kts | 325° |
| 2026-04-22 16:01 | 13.22982 | 121.63469 | 22480 ft | 399 kts | 325° |
| 2026-04-22 16:01 | 13.25352 | 121.61809 | 21958 ft | 396 kts | 325° |
| 2026-04-22 16:01 | 13.27670 | 121.60187 | 21428 ft | 394 kts | 325° |
| 2026-04-22 16:02 | 13.29956 | 121.58585 | 20895 ft | 392 kts | 325° |
| 2026-04-22 16:02 | 13.32271 | 121.56963 | 20244 ft | 389 kts | 325° |
| 2026-04-22 16:02 | 13.34546 | 121.55369 | 19380 ft | 385 kts | 326° |
| 2026-04-22 16:02 | 13.36777 | 121.53803 | 18863 ft | 371 kts | 326° |
| 2026-04-22 16:03 | 13.38928 | 121.52294 | 18390 ft | 357 kts | 326° |
| 2026-04-22 16:03 | 13.41019 | 121.50825 | 17937 ft | 344 kts | 326° |
| 2026-04-22 16:03 | 13.43003 | 121.49431 | 17423 ft | 338 kts | 326° |
| 2026-04-22 16:03 | 13.45018 | 121.48016 | 16981 ft | 336 kts | 326° |
| 2026-04-22 16:04 | 13.46983 | 121.46636 | 16584 ft | 334 kts | 326° |
| 2026-04-22 16:04 | 13.48963 | 121.45247 | 16181 ft | 331 kts | 326° |
| 2026-04-22 16:04 | 13.50919 | 121.43874 | 15931 ft | 326 kts | 326° |
| 2026-04-22 16:04 | 13.52839 | 121.42527 | 15926 ft | 329 kts | 326° |
| 2026-04-22 16:05 | 13.54143 | 121.41612 | 15923 ft | 330 kts | 326° |
| 2026-04-22 16:05 | 13.56775 | 121.39765 | 15923 ft | 330 kts | 326° |
| 2026-04-22 16:05 | 13.58715 | 121.38378 | 15926 ft | 331 kts | 325° |
| 2026-04-22 16:05 | 13.60648 | 121.36946 | 15932 ft | 330 kts | 324° |
| 2026-04-22 16:06 | 13.62558 | 121.35510 | 15932 ft | 330 kts | 324° |
| 2026-04-22 16:06 | 13.64473 | 121.34068 | 15933 ft | 330 kts | 324° |
| 2026-04-22 16:06 | 13.66399 | 121.32622 | 15933 ft | 330 kts | 324° |
| 2026-04-22 16:06 | 13.68318 | 121.31187 | 15930 ft | 329 kts | 324° |
| 2026-04-22 16:07 | 13.70219 | 121.29769 | 15933 ft | 329 kts | 324° |
| 2026-04-22 16:07 | 13.72130 | 121.28345 | 15934 ft | 330 kts | 324° |
| 2026-04-22 16:07 | 13.74058 | 121.26908 | 15927 ft | 330 kts | 324° |
| 2026-04-22 16:07 | 13.75982 | 121.25474 | 15931 ft | 331 kts | 324° |
| 2026-04-22 16:08 | 13.77898 | 121.24045 | 15940 ft | 331 kts | 324° |
| 2026-04-22 16:08 | 13.79831 | 121.22604 | 15938 ft | 329 kts | 324° |
| 2026-04-22 16:08 | 13.81729 | 121.21186 | 15945 ft | 329 kts | 324° |
| 2026-04-22 16:08 | 13.83658 | 121.19746 | 15947 ft | 330 kts | 324° |
| 2026-04-22 16:09 | 13.85553 | 121.18332 | 15950 ft | 329 kts | 324° |
| 2026-04-22 16:09 | 13.87487 | 121.16888 | 15947 ft | 329 kts | 324° |
| 2026-04-22 16:09 | 13.89386 | 121.15470 | 15945 ft | 329 kts | 324° |
| 2026-04-22 16:09 | 13.91287 | 121.14050 | 15948 ft | 329 kts | 324° |
| 2026-04-22 16:10 | 13.93220 | 121.12606 | 15950 ft | 330 kts | 324° |
| 2026-04-22 16:10 | 13.95123 | 121.11183 | 15950 ft | 330 kts | 324° |
| 2026-04-22 16:10 | 13.96387 | 121.10239 | 15950 ft | 330 kts | 324° |
| 2026-04-22 16:10 | 13.98955 | 121.08319 | 15954 ft | 331 kts | 324° |
| 2026-04-22 16:11 | 14.00888 | 121.06874 | 15947 ft | 330 kts | 324° |
| 2026-04-22 16:11 | 14.02791 | 121.05451 | 15936 ft | 329 kts | 324° |
| 2026-04-22 16:11 | 14.04715 | 121.04012 | 15933 ft | 329 kts | 324° |
| 2026-04-22 16:11 | 14.06637 | 121.02574 | 15923 ft | 329 kts | 324° |
| 2026-04-22 16:12 | 14.08544 | 121.01148 | 15876 ft | 322 kts | 324° |
| 2026-04-22 16:12 | 14.10491 | 120.99976 | 15670 ft | 307 kts | 341° |
| 2026-04-22 16:12 | 14.12579 | 120.99496 | 15417 ft | 291 kts | 354° |
| 2026-04-22 16:12 | 14.14579 | 120.99312 | 15179 ft | 278 kts | 356° |
| 2026-04-22 16:13 | 14.16576 | 120.99180 | 14773 ft | 273 kts | 357° |
| 2026-04-22 16:13 | 14.18499 | 120.99061 | 14323 ft | 270 kts | 357° |
| 2026-04-22 16:13 | 14.20417 | 120.99035 | 13901 ft | 266 kts | 9° |
| 2026-04-22 16:13 | 14.22181 | 120.99701 | 13373 ft | 264 kts | 38° |
| 2026-04-22 16:14 | 14.23448 | 121.01096 | 12941 ft | 259 kts | 62° |
| 2026-04-22 16:14 | 14.23958 | 121.02873 | 12437 ft | 258 kts | 90° |
| 2026-04-22 16:14 | 14.23546 | 121.04701 | 12022 ft | 256 kts | 119° |
| 2026-04-22 16:14 | 14.22327 | 121.06053 | 11688 ft | 257 kts | 147° |
| 2026-04-22 16:15 | 14.20586 | 121.06659 | 11366 ft | 257 kts | 171° |
| 2026-04-22 16:15 | 14.18750 | 121.06695 | 11028 ft | 260 kts | 188° |
| 2026-04-22 16:15 | 14.17039 | 121.05960 | 10701 ft | 262 kts | 217° |
| 2026-04-22 16:15 | 14.15862 | 121.04471 | 10334 ft | 265 kts | 245° |
| 2026-04-22 16:16 | 14.15285 | 121.02620 | 10052 ft | 262 kts | 256° |
| 2026-04-22 16:16 | 14.14863 | 121.00731 | 9692 ft | 264 kts | 257° |
| 2026-04-22 16:16 | 14.14459 | 120.98846 | 9351 ft | 263 kts | 257° |
| 2026-04-22 16:16 | 14.14048 | 120.96941 | 8686 ft | 271 kts | 257° |
| 2026-04-22 16:17 | 14.13612 | 120.94958 | 7985 ft | 279 kts | 257° |
| 2026-04-22 16:17 | 14.13166 | 120.92964 | 7225 ft | 287 kts | 257° |
| 2026-04-22 16:17 | 14.12698 | 120.90902 | 6510 ft | 289 kts | 257° |
| 2026-04-22 16:17 | 14.12227 | 120.88847 | 5912 ft | 286 kts | 258° |
| 2026-04-22 16:18 | 14.12059 | 120.86762 | 5396 ft | 285 kts | 277° |
| 2026-04-22 16:18 | 14.12477 | 120.84724 | 5058 ft | 281 kts | 286° |
| 2026-04-22 16:18 | 14.13022 | 120.82752 | 4978 ft | 279 kts | 287° |
| 2026-04-22 16:18 | 14.13583 | 120.80774 | 4979 ft | 282 kts | 287° |
| 2026-04-22 16:19 | 14.14148 | 120.78779 | 4973 ft | 282 kts | 287° |
| 2026-04-22 16:19 | 14.14701 | 120.76816 | 4961 ft | 269 kts | 287° |
| 2026-04-22 16:19 | 14.15219 | 120.74966 | 4973 ft | 254 kts | 288° |
| 2026-04-22 16:19 | 14.15969 | 120.73341 | 4969 ft | 238 kts | 312° |
| 2026-04-22 16:20 | 14.17225 | 120.72192 | 4979 ft | 236 kts | 326° |
| 2026-04-22 16:20 | 14.18607 | 120.71190 | 4972 ft | 236 kts | 327° |
| 2026-04-22 16:20 | 14.19999 | 120.70196 | 4960 ft | 236 kts | 327° |
| 2026-04-22 16:20 | 14.21391 | 120.69197 | 4960 ft | 236 kts | 327° |
| 2026-04-22 16:21 | 14.22784 | 120.68194 | 4964 ft | 235 kts | 327° |
| 2026-04-22 16:21 | 14.24159 | 120.67204 | 4955 ft | 233 kts | 327° |
| 2026-04-22 16:21 | 14.25533 | 120.66214 | 4964 ft | 234 kts | 327° |
| 2026-04-22 16:21 | 14.27010 | 120.65389 | 4948 ft | 230 kts | 350° |
| 2026-04-22 16:22 | 14.29824 | 120.66580 | 4984 ft | 223 kts | 49° |
| 2026-04-22 16:22 | 14.30932 | 120.67763 | 4966 ft | 223 kts | 41° |
| 2026-04-22 16:22 | 14.32205 | 120.68766 | 4970 ft | 223 kts | 38° |
| 2026-04-22 16:23 | 14.34164 | 120.71159 | 4971 ft | 212 kts | 65° |
| 2026-04-22 16:23 | 14.34811 | 120.72553 | 4962 ft | 212 kts | 64° |
| 2026-04-22 16:23 | 14.35504 | 120.73953 | 4944 ft | 213 kts | 63° |
| 2026-04-22 16:24 | 14.36231 | 120.75345 | 4869 ft | 212 kts | 62° |
| 2026-04-22 16:24 | 14.37678 | 120.78069 | 4688 ft | 212 kts | 62° |
| 2026-04-22 16:24 | 14.38374 | 120.79448 | 4592 ft | 210 kts | 64° |
| 2026-04-22 16:25 | 14.39049 | 120.80831 | 4419 ft | 212 kts | 62° |
| 2026-04-22 16:25 | 14.40494 | 120.83445 | 3709 ft | 192 kts | 59° |
| 2026-04-22 16:25 | 14.41160 | 120.84626 | 3408 ft | 180 kts | 60° |
| 2026-04-22 16:26 | 14.41790 | 120.85750 | 3171 ft | 170 kts | 60° |
| 2026-04-22 16:26 | 14.42377 | 120.86798 | 2910 ft | 162 kts | 61° |
| 2026-04-22 16:26 | 14.42939 | 120.87801 | 2804 ft | 159 kts | 61° |
| 2026-04-22 16:26 | 14.43512 | 120.88828 | 2481 ft | 160 kts | 60° |
| 2026-04-22 16:27 | 14.44066 | 120.89816 | 2277 ft | 154 kts | 60° |
| 2026-04-22 16:27 | 14.44618 | 120.90801 | 2069 ft | 155 kts | 60° |
| 2026-04-22 16:27 | 14.45159 | 120.91769 | 1859 ft | 152 kts | 60° |
| 2026-04-22 16:27 | 14.45693 | 120.92722 | 1663 ft | 149 kts | 60° |
| 2026-04-22 16:28 | 14.46227 | 120.93677 | 1461 ft | 149 kts | 59° |
| 2026-04-22 16:28 | 14.46760 | 120.94628 | 1261 ft | 150 kts | 60° |
| 2026-04-22 16:28 | 14.47292 | 120.95579 | 1062 ft | 151 kts | 60° |
| 2026-04-22 16:28 | 14.47831 | 120.96545 | 863 ft | 151 kts | 60° |
| 2026-04-22 16:29 | 14.48363 | 120.97491 | 672 ft | 151 kts | 61° |
| 2026-04-22 16:29 | 14.48906 | 120.98461 | 467 ft | 153 kts | 62° |
| 2026-04-22 16:29 | 14.49429 | 120.99401 | 277 ft | 151 kts | 62° |
| 2026-04-22 16:29 | 14.49977 | 121.00367 | 96 ft | 150 kts | 61° |
| 2026-04-22 16:30 | 14.50336 | 121.00995 | 83 ft | 157 kts | 62° |
| 2026-04-22 16:30 | 14.50783 | 121.01811 | 82 ft | 31 kts | 59° |
| 2026-04-22 16:30 | 14.50804 | 121.01848 | 82 ft | 0 kts | 59° |
| 2026-04-22 16:30 | 14.50826 | 121.01886 | 82 ft | 18 kts | 60° |
| 2026-04-22 16:31 | 14.50938 | 121.02000 | 82 ft | 16 kts | 351° |
| 2026-04-22 16:31 | 14.50964 | 121.01984 | 82 ft | 0 kts | 320° |
| 2026-04-22 16:31 | 14.50996 | 121.01949 | 82 ft | 10 kts | 305° |
| 2026-04-22 16:32 | 14.50975 | 121.01863 | 82 ft | 16 kts | 239° |
| 2026-04-22 16:32 | 14.50913 | 121.01759 | 82 ft | 14 kts | 239° |
| 2026-04-22 16:32 | 14.50889 | 121.01680 | 82 ft | 11 kts | 290° |
| 2026-04-22 16:32 | 14.50916 | 121.01613 | 82 ft | 9 kts | 278° |
| 2026-04-22 16:33 | 14.50886 | 121.01554 | 82 ft | 10 kts | 234° |
| 2026-04-22 16:33 | 14.50844 | 121.01485 | 82 ft | 11 kts | 246° |
| 2026-04-22 16:33 | 14.50860 | 121.01443 | 82 ft | 4 kts | 331° |
| 2026-04-22 16:33 | 14.50888 | 121.01428 | 82 ft | 4 kts | 333° |
| 2026-04-22 16:34 | 14.50918 | 121.01411 | 82 ft | 4 kts | 331° |
| 2026-04-22 16:34 | 14.50923 | 121.01408 | 82 ft | 0 kts | 330° |